createdAt,value
2017-07-29T05:31:20.016Z,84.36
2017-07-29T05:31:45.769Z,84.94
2017-07-29T05:32:11.055Z,84.41
2017-07-29T05:32:37.350Z,84.45
2017-07-29T05:33:02.706Z,84.45
2017-07-29T05:33:28.361Z,84.36
2017-07-29T05:33:53.793Z,84.36
2017-07-29T05:34:19.611Z,84.36
2017-07-29T05:34:44.951Z,84.26
2017-07-29T05:35:10.411Z,84.36
2017-07-29T05:35:35.900Z,84.36
2017-07-29T05:36:01.363Z,84.55
2017-07-29T05:36:26.814Z,84.45
2017-07-29T05:36:52.264Z,83.78
2017-07-29T05:37:17.740Z,83.49
2017-07-29T05:37:43.185Z,83.49
2017-07-29T05:38:08.630Z,83.3
2017-07-29T05:38:34.129Z,83.59
2017-07-29T05:38:59.598Z,83.59
2017-07-29T05:39:25.079Z,83.4
2017-07-29T05:39:50.538Z,83.4
2017-07-29T05:40:15.966Z,83.3
2017-07-29T05:40:41.425Z,83.2
2017-07-29T05:41:06.872Z,83.59
2017-07-29T05:41:32.672Z,83.49
2017-07-29T05:41:58.831Z,83.4
2017-07-29T05:42:24.176Z,83.3
2017-07-29T05:42:49.822Z,83.2
2017-07-29T05:43:16.219Z,82.82
2017-07-29T05:43:41.673Z,82.63
2017-07-29T05:44:07.303Z,83.11
2017-07-29T05:44:32.726Z,83.11
2017-07-29T05:44:58.204Z,82.82
2017-07-29T05:45:23.717Z,82.73
2017-07-29T05:45:49.094Z,83.11
2017-07-29T05:46:14.539Z,82.92
2017-07-29T05:46:40.016Z,82.82
2017-07-29T05:47:05.518Z,83.59
2017-07-29T05:47:31.016Z,83.59
2017-07-29T05:47:56.790Z,83.3
2017-07-29T05:48:22.851Z,83.4
2017-07-29T05:48:48.360Z,83.3
2017-07-29T05:49:13.745Z,83.4
2017-07-29T05:49:39.238Z,83.2
2017-07-29T05:50:04.654Z,83.59
2017-07-29T05:50:30.122Z,83.01
2017-07-29T05:50:55.600Z,82.82
2017-07-29T05:51:21.112Z,82.82
2017-07-29T05:51:46.962Z,83.01
2017-07-29T05:52:12.447Z,83.4
2017-07-29T05:52:37.924Z,83.4
2017-07-29T05:53:03.398Z,83.69
2017-07-29T05:53:28.858Z,82.92
2017-07-29T05:53:54.302Z,83.3
2017-07-29T05:54:19.753Z,83.59
2017-07-29T05:54:45.198Z,83.4
2017-07-29T05:55:10.685Z,83.2
2017-07-29T05:55:36.148Z,83.49
2017-07-29T05:56:01.591Z,83.3
2017-07-29T05:56:27.079Z,83.49
2017-07-29T05:56:52.507Z,83.3
2017-07-29T05:57:17.981Z,83.34
2017-07-29T05:57:43.420Z,83.73
2017-07-29T05:58:08.881Z,82.86
2017-07-29T05:58:34.390Z,82.86
2017-07-29T05:58:59.807Z,82.96
2017-07-29T05:59:25.273Z,82.96
2017-07-29T05:59:50.762Z,83.15
2017-07-29T06:00:16.241Z,82.86
2017-07-29T06:00:41.696Z,82.76
2017-07-29T06:01:07.164Z,82.38
2017-07-29T06:01:32.641Z,82.38
2017-07-29T06:01:58.109Z,82.38
2017-07-29T06:02:23.637Z,82.67
2017-07-29T06:02:49.110Z,82.09
2017-07-29T06:03:14.578Z,82.14
2017-07-29T06:03:40.020Z,81.84
2017-07-29T06:04:05.514Z,81.27
2017-07-29T06:04:30.952Z,81.17
2017-07-29T06:04:56.376Z,81.17
2017-07-29T06:05:21.832Z,80.5
2017-07-29T06:05:47.306Z,80.25
2017-07-29T06:06:12.785Z,79.77
2017-07-29T06:06:38.203Z,79.48
2017-07-29T06:07:03.637Z,79.28
2017-07-29T06:07:29.089Z,79.1
2017-07-29T06:07:54.566Z,78.81
2017-07-29T06:08:20.048Z,78.81
2017-07-29T06:08:45.489Z,79.19
2017-07-29T06:09:10.983Z,78.13
2017-07-29T06:09:36.443Z,77.88
2017-07-29T06:10:01.879Z,78.08
2017-07-29T06:10:27.372Z,77.59
2017-07-29T06:10:52.822Z,77.5
2017-07-29T06:11:18.334Z,77.59
2017-07-29T06:11:43.775Z,77.69
2017-07-29T06:12:09.208Z,77.98
2017-07-29T06:12:34.699Z,77.88
2017-07-29T06:13:00.216Z,77.88
2017-07-29T06:13:25.661Z,77.01
2017-07-29T06:13:51.144Z,78.08
2017-07-29T06:14:16.632Z,77.4
2017-07-29T06:14:42.062Z,77.5
2017-07-29T06:15:07.515Z,77.31
2017-07-29T06:15:32.978Z,78.08
2017-07-29T06:15:58.453Z,77.4
2017-07-29T06:16:23.932Z,78.08
2017-07-29T06:16:49.349Z,77.4
2017-07-29T06:17:14.815Z,77.69
2017-07-29T06:17:40.322Z,77.4
2017-07-29T06:18:05.731Z,77.59
2017-07-29T06:18:31.209Z,77.31
2017-07-29T06:18:56.639Z,77.31
2017-07-29T06:19:22.077Z,77.59
2017-07-29T06:19:47.528Z,77.5
2017-07-29T06:20:12.982Z,77.01
2017-07-29T06:20:38.512Z,77.11
2017-07-29T06:21:03.943Z,76.92
2017-07-29T06:21:29.415Z,77.01
2017-07-29T06:21:54.874Z,77.4
2017-07-29T06:22:20.310Z,77.4
2017-07-29T06:22:45.804Z,77.11
2017-07-29T06:23:11.234Z,76.92
2017-07-29T06:23:36.684Z,77.11
2017-07-29T06:24:02.137Z,77.01
2017-07-29T06:24:27.564Z,77.11
2017-07-29T06:24:53.017Z,77.21
2017-07-29T06:25:18.490Z,77.4
2017-07-29T06:25:43.957Z,77.11
2017-07-29T06:26:09.405Z,77.01
2017-07-29T06:26:34.845Z,77.15
2017-07-29T06:27:00.343Z,76.67
2017-07-29T06:27:25.825Z,76.25
2017-07-29T06:27:51.267Z,76.48
2017-07-29T06:28:16.750Z,76.09
2017-07-29T06:28:42.185Z,76.86
2017-07-29T06:29:07.645Z,75.9
2017-07-29T06:29:33.095Z,75.61
2017-07-29T06:29:58.578Z,75.9
2017-07-29T06:30:24.038Z,76.18
2017-07-29T06:30:49.483Z,75.8
2017-07-29T06:31:15.009Z,75.51
2017-07-29T06:31:40.509Z,75.13
2017-07-29T06:32:05.985Z,75.51
2017-07-29T06:32:31.401Z,75.03
2017-07-29T06:32:56.896Z,74.55
2017-07-29T06:33:22.345Z,74.93
2017-07-29T06:33:47.837Z,75.03
2017-07-29T06:34:13.310Z,75.32
2017-07-29T06:34:38.736Z,75.13
2017-07-29T06:35:04.215Z,74.65
2017-07-29T06:35:29.673Z,74.84
2017-07-29T06:35:55.124Z,74.93
2017-07-29T06:36:20.595Z,74.84
2017-07-29T06:36:46.052Z,74.84
2017-07-29T06:37:11.515Z,75.32
2017-07-29T06:37:36.982Z,75.23
2017-07-29T06:38:02.460Z,74.84
2017-07-29T06:38:27.933Z,74.84
2017-07-29T06:38:53.330Z,74.55
2017-07-29T06:39:18.792Z,74.84
2017-07-29T06:39:44.259Z,74.74
2017-07-29T06:40:09.738Z,74.36
2017-07-29T06:40:35.170Z,74.45
2017-07-29T06:41:00.614Z,74.36
2017-07-29T06:41:26.072Z,74.55
2017-07-29T06:41:51.536Z,74.65
2017-07-29T06:42:16.988Z,74.55
2017-07-29T06:42:42.467Z,74.45
2017-07-29T06:43:07.916Z,73.97
2017-07-29T06:43:33.396Z,74.16
2017-07-29T06:43:58.830Z,74.16
2017-07-29T06:44:24.346Z,74.55
2017-07-29T06:44:49.742Z,74.65
2017-07-29T06:45:15.211Z,74.55
2017-07-29T06:45:40.641Z,74.74
2017-07-29T06:46:06.119Z,74.84
2017-07-29T06:46:31.606Z,75.13
2017-07-29T06:46:57.027Z,75.13
2017-07-29T06:47:22.455Z,75.23
2017-07-29T06:47:47.908Z,75.42
2017-07-29T06:48:13.430Z,75.51
2017-07-29T06:48:38.904Z,74.84
2017-07-29T06:49:04.354Z,74.55
2017-07-29T06:49:29.835Z,74.55
2017-07-29T06:49:55.289Z,74.16
2017-07-29T06:50:20.730Z,74.26
2017-07-29T06:50:46.217Z,74.07
2017-07-29T06:51:11.691Z,74.16
2017-07-29T06:51:37.164Z,73.97
2017-07-29T06:52:02.586Z,73.97
2017-07-29T06:52:28.043Z,73.78
2017-07-29T06:52:53.471Z,73.91
2017-07-29T06:53:18.971Z,73.53
2017-07-29T06:53:44.390Z,73.62
2017-07-29T06:54:09.885Z,74.01
2017-07-29T06:54:35.355Z,74.2
2017-07-29T06:55:00.788Z,73.88
2017-07-29T06:55:26.262Z,74.2
2017-07-29T06:55:51.707Z,74.07
2017-07-29T06:56:17.185Z,74.36
2017-07-29T06:56:42.639Z,74.07
2017-07-29T06:57:08.109Z,74.26
2017-07-29T06:57:33.607Z,74.07
2017-07-29T06:57:59.078Z,73.97
2017-07-29T06:58:24.562Z,73.58
2017-07-29T06:58:49.971Z,73.68
2017-07-29T06:59:15.441Z,73.24
2017-07-29T06:59:40.920Z,73.3
2017-07-29T07:00:06.447Z,73.33
2017-07-29T07:00:31.937Z,73.24
2017-07-29T07:00:57.455Z,73.53
2017-07-29T07:01:22.979Z,73.62
2017-07-29T07:01:48.441Z,73.24
2017-07-29T07:02:13.921Z,72.95
2017-07-29T07:02:39.403Z,72.95
2017-07-29T07:03:04.892Z,72.66
2017-07-29T07:03:30.354Z,73.24
2017-07-29T07:03:55.824Z,72.85
2017-07-29T07:04:21.276Z,72.75
2017-07-29T07:04:46.718Z,72.08
2017-07-29T07:05:12.183Z,71.92
2017-07-29T07:05:37.681Z,71.64
2017-07-29T07:06:03.164Z,72.02
2017-07-29T07:06:28.626Z,72.02
2017-07-29T07:06:54.091Z,71.83
2017-07-29T07:07:19.566Z,71.64
2017-07-29T07:07:45.000Z,71.83
2017-07-29T07:08:10.497Z,71.54
2017-07-29T07:08:35.982Z,71.19
2017-07-29T07:09:01.444Z,71.06
2017-07-29T07:09:26.949Z,71.44
2017-07-29T07:09:52.424Z,71.64
2017-07-29T07:10:17.881Z,71.15
2017-07-29T07:10:43.366Z,70.9
2017-07-29T07:11:08.821Z,70.03
2017-07-29T07:11:34.288Z,70.42
2017-07-29T07:11:59.775Z,70.03
2017-07-29T07:12:25.277Z,70.22
2017-07-29T07:12:50.762Z,70.13
2017-07-29T07:13:16.226Z,70.16
2017-07-29T07:13:41.709Z,69.39
2017-07-29T07:14:07.177Z,69.97
2017-07-29T07:14:32.609Z,69.49
2017-07-29T07:14:58.085Z,69.78
2017-07-29T07:15:23.544Z,69.29
2017-07-29T07:15:49.031Z,69.49
2017-07-29T07:16:14.528Z,69.39
2017-07-29T07:16:39.986Z,69.78
2017-07-29T07:17:05.480Z,69.87
2017-07-29T07:17:30.974Z,69.87
2017-07-29T07:17:56.421Z,69.42
2017-07-29T07:18:21.907Z,68.84
2017-07-29T07:18:47.406Z,67.85
2017-07-29T07:19:12.858Z,67.69
2017-07-29T07:19:38.348Z,67.78
2017-07-29T07:20:03.816Z,68.17
2017-07-29T07:20:29.282Z,67.59
2017-07-29T07:20:54.760Z,67.59
2017-07-29T07:21:20.251Z,67.85
2017-07-29T07:21:45.722Z,67.88
2017-07-29T07:22:11.201Z,67.59
2017-07-29T07:22:36.664Z,67.78
2017-07-29T07:23:02.138Z,67.69
2017-07-29T07:23:27.596Z,68.04
2017-07-29T07:23:53.062Z,68.04
2017-07-29T07:24:18.511Z,67.94
2017-07-29T07:24:43.978Z,68.23
2017-07-29T07:25:09.412Z,68.04
2017-07-29T07:25:34.895Z,67.27
2017-07-29T07:26:33.389Z,66.97
2017-07-29T07:26:58.873Z,67.55
2017-07-29T07:27:24.357Z,66.97
2017-07-29T07:27:49.805Z,66.97
2017-07-29T07:28:15.282Z,67.55
2017-07-29T07:28:40.741Z,67.65
2017-07-29T07:29:06.214Z,67.55
2017-07-29T07:29:31.673Z,67.62
2017-07-29T07:29:57.182Z,67.71
2017-07-29T07:30:22.642Z,68.1
2017-07-29T07:30:48.112Z,67.62
2017-07-29T07:31:13.589Z,67.71
2017-07-29T07:31:39.077Z,67.52
2017-07-29T07:32:37.573Z,68.29
2017-07-29T07:33:03.028Z,68.49
2017-07-29T07:33:28.530Z,68.68
2017-07-29T07:33:53.992Z,68.97
2017-07-29T07:34:19.456Z,69.16
2017-07-29T07:34:44.948Z,68.68
2017-07-29T07:35:10.414Z,68.97
2017-07-29T07:35:35.898Z,68.97
2017-07-29T07:36:01.359Z,68.77
2017-07-29T07:36:26.809Z,68.65
2017-07-29T07:36:52.255Z,69.55
2017-07-29T07:37:17.740Z,69.64
2017-07-29T07:37:43.228Z,69.13
2017-07-29T07:38:08.717Z,69.03
2017-07-29T07:38:34.201Z,69.03
2017-07-29T07:38:59.672Z,69.32
2017-07-29T07:39:25.232Z,69.51
2017-07-29T07:39:50.730Z,69.13
2017-07-29T07:40:16.174Z,69.8
2017-07-29T07:40:41.616Z,69.61
2017-07-29T07:41:07.101Z,69.51
2017-07-29T07:41:32.556Z,69.42
2017-07-29T07:41:57.998Z,69.51
2017-07-29T07:42:23.469Z,69.8
2017-07-29T07:42:48.904Z,70
2017-07-29T07:43:14.379Z,69.51
2017-07-29T07:43:39.844Z,69.9
2017-07-29T07:44:05.287Z,69.9
2017-07-29T07:44:30.746Z,69.51
2017-07-29T07:44:56.223Z,69.74
2017-07-29T07:45:21.698Z,69.71
2017-07-29T07:45:47.137Z,69.32
2017-07-29T07:46:12.586Z,69.55
2017-07-29T07:46:38.072Z,69.8
2017-07-29T07:47:03.540Z,69.42
2017-07-29T07:47:29.002Z,69.74
2017-07-29T07:47:54.466Z,69.93
2017-07-29T07:48:19.959Z,69.55
2017-07-29T07:48:45.392Z,69.55
2017-07-29T07:49:10.896Z,69.55
2017-07-29T07:49:36.349Z,69.84
2017-07-29T07:50:01.845Z,69.74
2017-07-29T07:50:27.278Z,69.74
2017-07-29T07:50:52.744Z,69.45
2017-07-29T07:51:18.224Z,69.35
2017-07-29T07:51:43.719Z,69.45
2017-07-29T07:52:09.225Z,69.64
2017-07-29T07:52:34.828Z,69.93
2017-07-29T07:53:00.220Z,69.45
2017-07-29T07:53:25.672Z,69.74
2017-07-29T07:53:51.148Z,69.55
2017-07-29T07:54:16.597Z,69.45
2017-07-29T07:54:42.057Z,69.71
2017-07-29T07:55:07.559Z,69.9
2017-07-29T07:55:33.099Z,69.64
2017-07-29T07:55:58.537Z,69.55
2017-07-29T07:56:24.007Z,69.71
2017-07-29T07:56:49.475Z,69.55
2017-07-29T07:57:14.964Z,69.32
2017-07-29T07:57:40.454Z,69.71
2017-07-29T07:58:05.891Z,70.19
2017-07-29T07:58:31.425Z,69.9
2017-07-29T07:58:56.926Z,69.51
2017-07-29T07:59:22.394Z,69.61
2017-07-29T07:59:47.885Z,69.9
2017-07-29T08:00:13.349Z,69.74
2017-07-29T08:00:38.833Z,70.09
2017-07-29T08:01:04.276Z,70.28
2017-07-29T08:01:29.755Z,69.71
2017-07-29T08:01:55.223Z,69.8
2017-07-29T08:02:20.699Z,69.71
2017-07-29T08:02:46.147Z,70.28
2017-07-29T08:03:11.629Z,70
2017-07-29T08:03:37.076Z,70
2017-07-29T08:04:02.586Z,70.28
2017-07-29T08:04:28.069Z,70.38
2017-07-29T08:04:53.535Z,70.57
2017-07-29T08:05:19.053Z,70
2017-07-29T08:05:44.498Z,70.38
2017-07-29T08:06:09.986Z,70.38
2017-07-29T08:06:35.447Z,70.57
2017-07-29T08:07:00.892Z,70.09
2017-07-29T08:07:26.363Z,70.38
2017-07-29T08:07:51.830Z,69.51
2017-07-29T08:08:17.320Z,69.71
2017-07-29T08:08:42.776Z,70.09
2017-07-29T08:09:08.262Z,70
2017-07-29T08:09:33.714Z,70.48
2017-07-29T08:09:59.209Z,70.28
2017-07-29T08:10:24.699Z,70.48
2017-07-29T08:10:50.198Z,70.57
2017-07-29T08:11:15.654Z,70.76
2017-07-29T08:11:41.148Z,71.06
2017-07-29T08:12:06.698Z,71.15
2017-07-29T08:12:32.187Z,71.44
2017-07-29T08:12:57.696Z,70.76
2017-07-29T08:13:23.192Z,70.57
2017-07-29T08:13:48.705Z,70.76
2017-07-29T08:14:14.173Z,70.67
2017-07-29T08:14:39.639Z,70.86
2017-07-29T08:15:05.138Z,70.09
2017-07-29T08:15:30.647Z,70.28
2017-07-29T08:15:56.103Z,69.8
2017-07-29T08:16:21.627Z,69.71
2017-07-29T08:16:47.081Z,69.61
2017-07-29T08:17:12.580Z,69.61
2017-07-29T08:17:38.038Z,69.51
2017-07-29T08:18:03.510Z,69.71
2017-07-29T08:18:28.981Z,69.74
2017-07-29T08:18:54.454Z,69.51
2017-07-29T08:19:19.965Z,69.71
2017-07-29T08:19:45.427Z,69.51
2017-07-29T08:20:10.881Z,69.74
2017-07-29T08:20:36.354Z,69.51
2017-07-29T08:21:01.849Z,69.45
2017-07-29T08:21:27.293Z,70.09
2017-07-29T08:21:52.787Z,70
2017-07-29T08:22:18.252Z,70.19
2017-07-29T08:22:43.702Z,70
2017-07-29T08:23:09.242Z,70.48
2017-07-29T08:23:34.714Z,70.28
2017-07-29T08:24:00.212Z,70.32
2017-07-29T08:24:25.669Z,70.67
2017-07-29T08:24:51.140Z,70.57
2017-07-29T08:25:16.617Z,70.67
2017-07-29T08:25:42.053Z,70.61
2017-07-29T08:26:07.504Z,71.09
2017-07-29T08:26:32.997Z,70.76
2017-07-29T08:26:58.510Z,70.57
2017-07-29T08:27:23.974Z,70.67
2017-07-29T08:27:49.456Z,70.76
2017-07-29T08:28:14.978Z,70.76
2017-07-29T08:28:40.444Z,70.57
2017-07-29T08:29:05.910Z,70.38
2017-07-29T08:29:31.374Z,71.34
2017-07-29T08:29:56.836Z,71.25
2017-07-29T08:30:22.305Z,71.09
2017-07-29T08:30:47.786Z,70.86
2017-07-29T08:31:13.235Z,70.51
2017-07-29T08:31:38.766Z,70.8
2017-07-29T08:32:04.242Z,70.51
2017-07-29T08:32:29.709Z,70.51
2017-07-29T08:32:55.142Z,70.8
2017-07-29T08:33:20.587Z,71.19
2017-07-29T08:33:46.059Z,70.61
2017-07-29T08:34:11.561Z,70.7
2017-07-29T08:34:37.045Z,70.7
2017-07-29T08:35:02.547Z,70.64
2017-07-29T08:35:28.063Z,70.36
2017-07-29T08:35:53.514Z,70.45
2017-07-29T08:36:18.984Z,69.97
2017-07-29T08:36:44.462Z,69.97
2017-07-29T08:37:09.946Z,69.78
2017-07-29T08:37:35.395Z,69.87
2017-07-29T08:38:00.857Z,69.68
2017-07-29T08:38:26.316Z,69.58
2017-07-29T08:38:51.787Z,69.49
2017-07-29T08:40:00.462Z,69.78
2017-07-29T08:40:25.947Z,69.58
2017-07-29T08:40:51.436Z,69.87
2017-07-29T08:41:16.945Z,69.87
2017-07-29T08:41:42.396Z,69.58
2017-07-29T08:42:51.062Z,69.58
2017-07-29T08:43:16.590Z,69.1
2017-07-29T08:43:41.998Z,69.81
2017-07-29T08:44:07.468Z,69.42
2017-07-29T08:44:32.934Z,69.32
2017-07-29T08:44:58.412Z,68.81
2017-07-29T08:45:23.874Z,69.23
2017-07-29T08:45:49.377Z,68.75
2017-07-29T08:46:14.862Z,68.65
2017-07-29T08:46:40.301Z,68.65
2017-07-29T08:47:05.756Z,68.84
2017-07-29T08:47:31.234Z,68.94
2017-07-29T08:47:56.788Z,69.13
2017-07-29T08:48:22.297Z,69
2017-07-29T08:48:47.748Z,69.52
2017-07-29T08:49:13.242Z,69.2
2017-07-29T08:49:38.692Z,69.29
2017-07-29T08:50:04.126Z,69.2
2017-07-29T08:50:29.588Z,69.39
2017-07-29T08:50:55.051Z,68.81
2017-07-29T08:51:20.541Z,68.81
2017-07-29T08:51:45.989Z,69.2
2017-07-29T08:52:11.466Z,68.71
2017-07-29T08:52:36.940Z,68.52
2017-07-29T08:53:02.390Z,68.62
2017-07-29T08:53:27.861Z,69
2017-07-29T08:53:53.330Z,69
2017-07-29T08:54:18.796Z,68.71
2017-07-29T08:54:44.274Z,68.91
2017-07-29T08:55:09.716Z,69
2017-07-29T08:55:35.183Z,69.49
2017-07-29T08:56:00.670Z,69.29
2017-07-29T08:56:26.203Z,69.29
2017-07-29T08:56:51.688Z,69.58
2017-07-29T08:57:17.159Z,69.58
2017-07-29T08:57:42.613Z,69.68
2017-07-29T08:58:08.067Z,69.97
2017-07-29T08:58:33.547Z,69.78
2017-07-29T08:58:59.034Z,69.58
2017-07-29T08:59:24.515Z,69.87
2017-07-29T08:59:49.995Z,69.87
2017-07-29T09:00:15.487Z,69.39
2017-07-29T09:00:40.947Z,69.78
2017-07-29T09:01:06.434Z,69.74
2017-07-29T09:01:31.935Z,69.29
2017-07-29T09:01:57.391Z,69.45
2017-07-29T09:02:22.919Z,69.29
2017-07-29T09:02:48.402Z,69.2
2017-07-29T09:03:13.860Z,69.29
2017-07-29T09:03:39.355Z,69.2
2017-07-29T09:04:04.810Z,69.58
2017-07-29T09:04:30.278Z,69.58
2017-07-29T09:04:55.796Z,69.49
2017-07-29T09:05:21.300Z,69.68
2017-07-29T09:05:46.749Z,69.58
2017-07-29T09:06:12.214Z,69.58
2017-07-29T09:06:37.693Z,70.06
2017-07-29T09:07:03.192Z,69.68
2017-07-29T09:07:28.697Z,69.2
2017-07-29T09:07:54.183Z,69.39
2017-07-29T09:08:19.669Z,69.68
2017-07-29T09:08:45.133Z,69.68
2017-07-29T09:09:10.634Z,69.68
2017-07-29T09:09:36.111Z,69.81
2017-07-29T09:10:01.560Z,69.32
2017-07-29T09:10:27.003Z,69.39
2017-07-29T09:10:52.487Z,69.42
2017-07-29T09:11:18.015Z,69.9
2017-07-29T09:11:43.501Z,70.1
2017-07-29T09:12:08.952Z,70.1
2017-07-29T09:12:34.399Z,69.81
2017-07-29T09:12:59.855Z,69.32
2017-07-29T09:13:25.313Z,69.42
2017-07-29T09:13:50.804Z,69.42
2017-07-29T09:14:16.291Z,69.52
2017-07-29T09:14:41.754Z,69.62
2017-07-29T09:15:07.240Z,68.84
2017-07-29T09:15:32.694Z,69.13
2017-07-29T09:15:58.170Z,69.13
2017-07-29T09:16:23.678Z,68.65
2017-07-29T09:16:49.143Z,68.84
2017-07-29T09:17:14.665Z,68.84
2017-07-29T09:17:40.141Z,68.75
2017-07-29T09:18:05.636Z,68.84
2017-07-29T09:18:31.127Z,68.65
2017-07-29T09:18:56.604Z,68.98
2017-07-29T09:19:22.051Z,69.17
2017-07-29T09:19:47.595Z,68.88
2017-07-29T09:20:13.065Z,68.68
2017-07-29T09:20:38.553Z,68.3
2017-07-29T09:21:04.045Z,68.4
2017-07-29T09:21:29.515Z,68.78
2017-07-29T09:21:54.972Z,68.68
2017-07-29T09:22:20.513Z,68.3
2017-07-29T09:22:45.972Z,68.1
2017-07-29T09:23:11.467Z,67.91
2017-07-29T09:23:36.942Z,67.62
2017-07-29T09:24:02.431Z,67.72
2017-07-29T09:24:27.905Z,67.82
2017-07-29T09:24:53.376Z,67.72
2017-07-29T09:25:18.871Z,67.82
2017-07-29T09:25:44.331Z,67.91
2017-07-29T09:26:09.776Z,67.52
2017-07-29T09:26:35.296Z,67.88
2017-07-29T09:27:00.829Z,67.52
2017-07-29T09:27:26.284Z,67.62
2017-07-29T09:27:51.744Z,67.88
2017-07-29T09:28:17.218Z,67.49
2017-07-29T09:28:42.717Z,67.82
2017-07-29T09:29:08.215Z,67.49
2017-07-29T09:29:33.685Z,67.88
2017-07-29T09:29:59.171Z,67.69
2017-07-29T09:30:24.664Z,67.59
2017-07-29T09:30:50.145Z,67.3
2017-07-29T09:31:15.660Z,67.78
2017-07-29T09:31:41.122Z,67.88
2017-07-29T09:32:06.596Z,67.97
2017-07-29T09:32:32.021Z,67.97
2017-07-29T09:32:57.514Z,67.88
2017-07-29T09:33:23.066Z,68.07
2017-07-29T09:33:48.546Z,68.36
2017-07-29T09:34:14.040Z,68.55
2017-07-29T09:34:39.490Z,68.65
2017-07-29T09:35:05.013Z,68.36
2017-07-29T09:35:30.487Z,68.75
2017-07-29T09:35:55.922Z,68.36
2017-07-29T09:36:21.416Z,68.55
2017-07-29T09:36:46.952Z,68.36
2017-07-29T09:38:00.763Z,68.65
2017-07-29T09:38:26.250Z,68.36
2017-07-29T09:38:51.711Z,68.17
2017-07-29T09:39:17.176Z,68.17
2017-07-29T09:39:42.662Z,68.07
2017-07-29T09:40:08.181Z,67.69
2017-07-29T09:40:33.626Z,68.36
2017-07-29T09:40:59.072Z,68.17
2017-07-29T09:41:24.553Z,68.65
2017-07-29T09:41:50.032Z,68.55
2017-07-29T09:42:15.535Z,69.04
2017-07-29T09:42:40.989Z,69.07
2017-07-29T09:43:06.441Z,68.78
2017-07-29T09:43:31.909Z,68.88
2017-07-29T09:43:57.384Z,68.98
2017-07-29T09:44:22.840Z,68.94
2017-07-29T09:44:48.304Z,68.98
2017-07-29T09:45:13.752Z,69.07
2017-07-29T09:45:39.258Z,69.17
2017-07-29T09:46:04.714Z,69.36
2017-07-29T09:46:30.223Z,69.36
2017-07-29T09:46:55.694Z,69.17
2017-07-29T09:47:21.158Z,68.78
2017-07-29T09:47:46.616Z,68.59
2017-07-29T09:48:12.092Z,68.59
2017-07-29T09:48:37.610Z,68.49
2017-07-29T09:49:03.134Z,68.2
2017-07-29T09:49:28.584Z,68.2
2017-07-29T09:49:54.031Z,68.59
2017-07-29T09:50:19.512Z,68.78
2017-07-29T09:50:45.027Z,68.68
2017-07-29T09:51:10.501Z,68.75
2017-07-29T09:51:35.992Z,68.55
2017-07-29T09:52:01.476Z,68.68
2017-07-29T09:52:26.956Z,69.26
2017-07-29T09:52:52.396Z,68.94
2017-07-29T09:53:17.880Z,68.88
2017-07-29T09:53:43.373Z,68.94
2017-07-29T09:54:08.872Z,69.26
2017-07-29T09:54:34.349Z,69.42
2017-07-29T09:54:59.853Z,69.52
2017-07-29T09:55:25.322Z,69.84
2017-07-29T09:55:50.800Z,69.32
2017-07-29T09:56:16.261Z,69.32
2017-07-29T09:56:41.726Z,69.32
2017-07-29T09:57:07.222Z,69.62
2017-07-29T09:57:32.683Z,69.81
2017-07-29T09:57:58.175Z,69.52
2017-07-29T09:58:23.666Z,69.62
2017-07-29T09:58:49.172Z,69.42
2017-07-29T09:59:14.630Z,69.32
2017-07-29T09:59:40.146Z,69.81
2017-07-29T10:00:05.634Z,70
2017-07-29T10:00:31.134Z,70.29
2017-07-29T10:00:56.611Z,69.52
2017-07-29T10:01:22.140Z,69.81
2017-07-29T10:01:47.634Z,69.81
2017-07-29T10:02:13.095Z,69.71
2017-07-29T10:02:38.601Z,70
2017-07-29T10:03:04.063Z,70
2017-07-29T10:03:29.539Z,69.71
2017-07-29T10:03:55.023Z,69.9
2017-07-29T10:04:20.493Z,70.39
2017-07-29T10:04:46.000Z,70.1
2017-07-29T10:05:11.477Z,69.9
2017-07-29T10:05:36.995Z,69.62
2017-07-29T10:06:02.449Z,70
2017-07-29T10:06:27.975Z,70
2017-07-29T10:06:53.489Z,70.29
2017-07-29T10:07:18.970Z,69.97
2017-07-29T10:08:32.775Z,70.29
2017-07-29T10:08:58.242Z,70.1
2017-07-29T10:09:23.732Z,70.1
2017-07-29T10:09:49.174Z,69.81
2017-07-29T10:10:14.691Z,69.62
2017-07-29T10:10:40.165Z,69.9
2017-07-29T10:11:05.629Z,69.81
2017-07-29T10:11:31.093Z,69.9
2017-07-29T10:11:56.634Z,69.71
2017-07-29T10:12:55.133Z,69.74
2017-07-29T10:13:20.619Z,69.94
2017-07-29T10:13:46.092Z,69.46
2017-07-29T10:14:11.574Z,69.46
2017-07-29T10:14:37.041Z,68.78
2017-07-29T10:15:02.547Z,69.26
2017-07-29T10:15:27.995Z,68.88
2017-07-29T10:15:53.496Z,68.88
2017-07-29T10:16:18.980Z,68.62
2017-07-29T10:16:44.456Z,68.72
2017-07-29T10:17:09.951Z,68.24
2017-07-29T10:17:35.463Z,68.62
2017-07-29T10:18:00.955Z,68.43
2017-07-29T10:18:26.405Z,68.24
2017-07-29T10:18:51.922Z,68.14
2017-07-29T10:19:17.376Z,68.33
2017-07-29T10:19:42.869Z,68.08
2017-07-29T10:20:08.320Z,68.27
2017-07-29T10:20:33.816Z,67.79
2017-07-29T10:20:59.270Z,68.08
2017-07-29T10:21:24.783Z,67.49
2017-07-29T10:21:50.275Z,67.88
2017-07-29T10:22:15.759Z,67.69
2017-07-29T10:22:41.260Z,67.69
2017-07-29T10:23:06.800Z,67.21
2017-07-29T10:23:32.205Z,67.4
2017-07-29T10:23:57.677Z,67.21
2017-07-29T10:24:23.128Z,67.69
2017-07-29T10:24:48.598Z,67.11
2017-07-29T10:25:14.101Z,67.01
2017-07-29T10:25:39.585Z,67.11
2017-07-29T10:26:05.015Z,67.21
2017-07-29T10:26:30.496Z,67.11
2017-07-29T10:26:55.942Z,66.91
2017-07-29T10:27:21.441Z,67.49
2017-07-29T10:27:46.925Z,67.59
2017-07-29T10:28:12.380Z,67.98
2017-07-29T10:28:37.868Z,67.88
2017-07-29T10:29:03.314Z,68.08
2017-07-29T10:29:28.850Z,68.27
2017-07-29T10:29:54.276Z,67.88
2017-07-29T10:30:19.834Z,67.01
2017-07-29T10:30:45.304Z,67.11
2017-07-29T10:31:10.778Z,67.01
2017-07-29T10:31:36.243Z,67.01
2017-07-29T10:32:01.724Z,66.91
2017-07-29T10:32:27.195Z,67.49
2017-07-29T10:32:52.673Z,67.59
2017-07-29T10:33:18.150Z,67.79
2017-07-29T10:33:43.624Z,67.59
2017-07-29T10:34:09.101Z,67.59
2017-07-29T10:34:34.562Z,67.79
2017-07-29T10:35:00.039Z,67.49
2017-07-29T10:35:25.522Z,67.88
2017-07-29T10:35:51.056Z,67.59
2017-07-29T10:36:16.554Z,68.08
2017-07-29T10:36:42.014Z,67.88
2017-07-29T10:37:07.479Z,67.88
2017-07-29T10:37:32.977Z,67.59
2017-07-29T10:37:58.494Z,67.69
2017-07-29T10:38:23.915Z,67.69
2017-07-29T10:38:49.364Z,67.69
2017-07-29T10:39:14.879Z,67.69
2017-07-29T10:39:40.391Z,67.98
2017-07-29T10:40:05.906Z,67.98
2017-07-29T10:40:31.383Z,67.69
2017-07-29T10:40:56.928Z,67.4
2017-07-29T10:41:22.441Z,67.59
2017-07-29T10:41:47.947Z,67.59
2017-07-29T10:42:13.440Z,67.56
2017-07-29T10:42:38.916Z,67.85
2017-07-29T10:43:04.380Z,67.75
2017-07-29T10:43:29.850Z,68.08
2017-07-29T10:43:55.371Z,67.75
2017-07-29T10:44:20.856Z,67.85
2017-07-29T10:44:46.308Z,67.75
2017-07-29T10:45:11.840Z,67.94
2017-07-29T10:45:37.318Z,68.33
2017-07-29T10:46:02.845Z,68.17
2017-07-29T10:46:28.294Z,68.27
2017-07-29T10:46:53.773Z,68.27
2017-07-29T10:47:19.266Z,68.14
2017-07-29T10:47:44.781Z,67.36
2017-07-29T10:48:10.393Z,67.66
2017-07-29T10:48:35.809Z,67.56
2017-07-29T10:49:01.320Z,67.66
2017-07-29T10:49:26.806Z,67.36
2017-07-29T10:49:52.296Z,67.08
2017-07-29T10:50:17.794Z,67.08
2017-07-29T10:50:43.274Z,67.17
2017-07-29T10:51:08.749Z,67.17
2017-07-29T10:51:34.226Z,66.98
2017-07-29T10:51:59.707Z,66.98
2017-07-29T10:52:25.167Z,67.75
2017-07-29T10:52:50.626Z,68.04
2017-07-29T10:53:16.106Z,67.56
2017-07-29T10:53:41.543Z,67.91
2017-07-29T10:54:07.044Z,67.72
2017-07-29T10:54:32.509Z,68.1
2017-07-29T10:54:57.988Z,68.01
2017-07-29T10:55:23.439Z,68.3
2017-07-29T10:55:48.912Z,68.49
2017-07-29T10:56:14.390Z,68.68
2017-07-29T10:56:39.880Z,68.49
2017-07-29T10:57:05.379Z,68.49
2017-07-29T10:57:30.846Z,68.59
2017-07-29T10:57:56.312Z,68.43
2017-07-29T10:58:21.797Z,68.14
2017-07-29T10:58:47.264Z,68.2
2017-07-29T10:59:12.707Z,68.14
2017-07-29T10:59:38.238Z,68.04
2017-07-29T11:00:03.686Z,68.04
2017-07-29T11:00:29.154Z,68.33
2017-07-29T11:00:54.608Z,68.14
2017-07-29T11:01:20.082Z,68.1
2017-07-29T11:01:45.637Z,68.33
2017-07-29T11:02:11.109Z,68.01
2017-07-29T11:02:36.626Z,68.2
2017-07-29T11:03:02.194Z,68.33
2017-07-29T11:03:27.639Z,68.3
2017-07-29T11:03:53.118Z,68.49
2017-07-29T11:04:18.621Z,68.68
2017-07-29T11:04:44.069Z,68.4
2017-07-29T11:05:09.526Z,68.78
2017-07-29T11:05:35.014Z,68.49
2017-07-29T11:06:00.490Z,68.4